Time;durP1;ratioP1;P1;durP2;ratioP2;P2;SDS_P1;SDS_P2;PMS_P1;PMS_P2;Temp;Humidity;BMP_temperature;BMP_pressure;BME280_temperature;BME280_humidity;BME280_pressure;Samples;Min_cycle;Max_cycle;Signal;HPM_P1;HPM_P2
2022/03/30 00:01:02;;;;;;;7.87;3.85;;;15.90;31.60;;;;;;2591081;52;20961;-65
2022/03/30 00:03:29;;;;;;;6.53;3.37;;;15.90;31.90;;;;;;2343648;53;20933;-64
2022/03/30 00:05:56;;;;;;;7.47;3.55;;;15.80;31.60;;;;;;2343490;53;20988;-63
2022/03/30 00:08:22;;;;;;;6.78;3.78;;;15.80;31.80;;;;;;2344517;53;20909;-63
2022/03/30 00:10:48;;;;;;;7.18;3.53;;;15.80;31.80;;;;;;2345017;53;21465;-62
2022/03/30 00:13:15;;;;;;;9.82;6.00;;;15.70;31.80;;;;;;2344607;53;20905;-63
2022/03/30 00:15:42;;;;;;;14.07;6.60;;;15.70;31.90;;;;;;2344749;53;20936;-62
2022/03/30 00:18:08;;;;;;;9.15;5.28;;;15.70;32.00;;;;;;2590979;52;20933;-63
2022/03/30 00:20:34;;;;;;;7.70;4.35;;;15.70;32.10;;;;;;2347930;53;21290;-62
2022/03/30 00:23:01;;;;;;;14.32;6.45;;;15.60;32.10;;;;;;2591110;52;20924;-62
2022/03/30 00:25:28;;;;;;;8.07;4.50;;;15.60;32.20;;;;;;2344650;53;20957;-63
2022/03/30 00:27:54;;;;;;;11.02;4.47;;;15.60;32.30;;;;;;2409553;52;20996;-62
2022/03/30 00:30:21;;;;;;;7.22;3.33;;;15.60;32.30;;;;;;2589997;52;20912;-65
2022/03/30 00:32:47;;;;;;;7.70;3.37;;;15.60;32.30;;;;;;2344732;53;21064;-63
2022/03/30 00:35:14;;;;;;;10.77;3.40;;;15.60;32.50;;;;;;2345040;53;20940;-63
2022/03/30 00:37:40;;;;;;;5.68;2.95;;;15.60;32.60;;;;;;2591682;52;21077;-62
2022/03/30 00:40:11;;;;;;;4.70;2.95;;;15.60;32.60;;;;;;2470249;52;21521;-64
2022/03/30 00:42:37;;;;;;;8.15;4.00;;;15.60;32.70;;;;;;2347318;53;21007;-63
2022/03/30 00:45:10;;;;;;;8.95;4.72;;;15.50;32.70;;;;;;2344546;53;20921;-62
2022/03/30 00:47:37;;;;;;;9.15;3.42;;;15.50;33.00;;;;;;2344966;53;20917;-65
2022/03/30 00:50:07;;;;;;;9.65;3.65;;;15.60;33.00;;;;;;2591652;52;20976;-64
2022/03/30 00:52:34;;;;;;;8.50;3.50;;;15.50;33.00;;;;;;2345077;53;21017;-62
2022/03/30 00:55:01;;;;;;;5.43;2.58;;;15.50;33.00;;;;;;2345392;53;21023;-63
2022/03/30 00:57:28;;;;;;;4.80;2.62;;;15.50;33.10;;;;;;2344885;53;21099;-62
2022/03/30 00:59:56;;;;;;;6.68;3.60;;;15.50;33.20;;;;;;2344955;53;20944;-64
2022/03/30 01:02:25;;;;;;;10.50;3.75;;;15.50;33.30;;;;;;2349346;53;20984;-63
2022/03/30 01:04:52;;;;;;;6.62;3.28;;;15.50;33.60;;;;;;2590035;52;21042;-64
2022/03/30 01:07:19;;;;;;;7.37;3.12;;;15.50;33.50;;;;;;2344129;53;20956;-62
2022/03/30 01:09:45;;;;;;;8.80;3.37;;;15.50;33.60;;;;;;2402873;52;20972;-64
2022/03/30 01:12:12;;;;;;;10.43;3.70;;;15.50;33.70;;;;;;2337933;53;20957;-64
2022/03/30 01:14:47;;;;;;;9.10;3.12;;;15.50;33.70;;;;;;2602012;52;21077;-63
2022/03/30 01:17:14;;;;;;;6.68;3.20;;;15.50;34.10;;;;;;2344721;53;20976;-64
2022/03/30 01:19:43;;;;;;;6.60;2.92;;;15.50;33.80;;;;;;2571407;52;20996;-62
2022/03/30 01:22:09;;;;;;;6.78;3.03;;;15.50;33.80;;;;;;2453369;52;21008;-63
2022/03/30 01:24:35;;;;;;;8.70;3.10;;;15.50;33.80;;;;;;2344205;53;21873;-64
2022/03/30 01:27:02;;;;;;;9.93;2.72;;;15.50;33.90;;;;;;2347081;54;20993;-63
2022/03/30 01:32:27;;;;;;;9.75;3.30;;;15.60;34.00;;;;;;2344398;53;21278;-63
2022/03/30 01:34:57;;;;;;;12.15;2.50;;;15.60;34.20;;;;;;2346495;53;20905;-63
2022/03/30 01:37:24;;;;;;;5.85;2.65;;;15.70;34.40;;;;;;2345100;53;21802;-63
2022/03/30 01:39:50;;;;;;;6.97;3.28;;;15.60;34.30;;;;;;2348086;53;22255;-62
2022/03/30 01:42:17;;;;;;;8.40;3.00;;;15.70;34.50;;;;;;2344055;53;20948;-62
2022/03/30 01:44:43;;;;;;;7.87;3.00;;;15.70;34.70;;;;;;2344953;53;20972;-62
2022/03/30 01:47:10;;;;;;;10.10;3.30;;;15.70;34.80;;;;;;2345467;53;21003;-64
2022/03/30 01:49:36;;;;;;;8.13;3.30;;;15.70;34.80;;;;;;2345003;53;21019;-63
2022/03/30 01:52:03;;;;;;;10.60;3.53;;;15.80;35.00;;;;;;2352635;53;20942;-63
2022/03/30 01:54:34;;;;;;;7.87;3.85;;;15.80;35.00;;;;;;2333141;53;20965;-64
2022/03/30 01:57:00;;;;;;;8.02;3.80;;;15.90;35.40;;;;;;2325248;54;20996;-63
2022/03/30 01:59:27;;;;;;;11.95;4.43;;;15.90;35.30;;;;;;2348246;53;20960;-63
2022/03/30 02:01:53;;;;;;;8.10;2.72;;;15.90;35.50;;;;;;2590687;52;20971;-64
2022/03/30 02:04:28;;;;;;;6.78;2.95;;;15.90;35.70;;;;;;2347769;53;21409;-61
2022/03/30 02:06:57;;;;;;;8.23;2.90;;;15.90;35.90;;;;;;2358412;53;21007;-62
2022/03/30 02:09:23;;;;;;;6.10;2.65;;;15.90;36.00;;;;;;2604536;52;21008;-62
2022/03/30 02:11:50;;;;;;;10.23;3.22;;;15.90;36.10;;;;;;2355350;53;20941;-63
2022/03/30 02:14:17;;;;;;;9.30;3.25;;;15.90;36.20;;;;;;2343841;53;20980;-63
2022/03/30 02:16:43;;;;;;;9.15;2.75;;;15.90;36.40;;;;;;2344654;53;20969;-63
2022/03/30 02:19:11;;;;;;;7.90;2.75;;;15.90;36.60;;;;;;2344795;53;20925;-62
2022/03/30 02:21:40;;;;;;;8.82;2.67;;;15.90;36.70;;;;;;2344979;53;20956;-63
2022/03/30 02:24:07;;;;;;;10.38;2.90;;;15.90;36.90;;;;;;2348025;53;20928;-63
2022/03/30 02:26:33;;;;;;;7.15;3.12;;;15.80;37.00;;;;;;2344573;53;21016;-63
2022/03/30 02:28:59;;;;;;;10.07;3.03;;;15.80;37.20;;;;;;2347207;53;20992;-63
2022/03/30 02:31:25;;;;;;;7.78;2.90;;;15.80;37.40;;;;;;2348645;53;21033;-63
2022/03/30 02:33:54;;;;;;;8.35;2.85;;;15.80;37.60;;;;;;2571576;52;20926;-63
2022/03/30 02:36:21;;;;;;;8.50;2.83;;;15.80;37.80;;;;;;2344337;53;20945;-63
2022/03/30 02:38:50;;;;;;;8.25;2.70;;;15.80;38.00;;;;;;2344783;53;20956;-62
2022/03/30 02:41:16;;;;;;;7.60;3.00;;;15.80;38.40;;;;;;2345004;53;20922;-63
2022/03/30 02:43:46;;;;;;;9.43;2.90;;;15.70;38.20;;;;;;2591736;52;20936;-62
2022/03/30 02:46:13;;;;;;;9.43;3.20;;;15.70;38.70;;;;;;2325015;54;21492;-64
2022/03/30 02:48:40;;;;;;;11.57;3.70;;;15.70;38.70;;;;;;2344802;53;20965;-62
2022/03/30 02:51:07;;;;;;;9.93;3.62;;;15.60;38.90;;;;;;2344376;53;21421;-63
2022/03/30 02:53:33;;;;;;;8.60;3.15;;;15.60;39.20;;;;;;2344983;53;21012;-63
2022/03/30 02:56:00;;;;;;;11.98;3.60;;;15.50;39.30;;;;;;2344475;53;20968;-62
2022/03/30 02:58:26;;;;;;;9.18;3.37;;;15.50;39.50;;;;;;2344782;53;21068;-63
2022/03/30 03:00:54;;;;;;;7.10;2.53;;;15.40;39.50;;;;;;2348192;53;20941;-64
2022/03/30 03:03:21;;;;;;;8.50;2.80;;;15.40;39.60;;;;;;2340830;53;21002;-64
2022/03/30 03:05:47;;;;;;;8.55;3.10;;;15.30;39.70;;;;;;2327240;53;21691;-64
2022/03/30 03:08:13;;;;;;;9.30;3.45;;;15.30;40.00;;;;;;2344826;53;21049;-64
2022/03/30 03:10:41;;;;;;;11.63;3.30;;;15.20;40.20;;;;;;2348311;53;20908;-64
2022/03/30 03:13:08;;;;;;;7.20;3.05;;;15.20;40.50;;;;;;2590907;52;21017;-63
2022/03/30 03:15:37;;;;;;;9.68;3.37;;;15.20;40.60;;;;;;2344985;53;21032;-62
2022/03/30 03:18:04;;;;;;;8.52;3.33;;;15.10;40.70;;;;;;2344546;53;21014;-64
2022/03/30 03:20:31;;;;;;;10.32;2.62;;;15.10;41.00;;;;;;2343544;53;21552;-64
2022/03/30 03:23:03;;;;;;;10.30;2.85;;;15.00;40.90;;;;;;2344118;53;20968;-63
2022/03/30 03:25:32;;;;;;;9.45;3.33;;;15.00;41.10;;;;;;2344729;53;21432;-63
2022/03/30 03:27:59;;;;;;;7.65;2.85;;;15.00;41.30;;;;;;2349981;53;21022;-64
2022/03/30 03:30:26;;;;;;;9.85;3.00;;;14.90;41.40;;;;;;2334703;53;20996;-64
2022/03/30 03:32:53;;;;;;;9.43;3.15;;;14.90;41.60;;;;;;2346342;53;20968;-62
2022/03/30 03:35:19;;;;;;;6.05;2.70;;;14.90;41.70;;;;;;2396671;53;20993;-62
2022/03/30 03:37:48;;;;;;;7.40;3.05;;;14.80;41.90;;;;;;2359759;53;20934;-63
2022/03/30 03:40:27;;;;;;;8.27;2.83;;;14.80;42.00;;;;;;2353667;53;20945;-63
2022/03/30 03:42:54;;;;;;;6.82;2.67;;;14.80;43.00;;;;;;2347108;53;21507;-63
2022/03/30 03:45:20;;;;;;;6.87;2.78;;;14.80;42.30;;;;;;2330535;53;20910;-63
2022/03/30 03:47:48;;;;;;;10.00;3.12;;;14.70;42.40;;;;;;2589987;52;20945;-62
2022/03/30 03:50:14;;;;;;;8.15;3.05;;;14.70;42.50;;;;;;2347328;53;21044;-64
2022/03/30 03:52:40;;;;;;;8.60;3.15;;;14.70;42.60;;;;;;2344438;53;21563;-63
2022/03/30 03:55:07;;;;;;;9.48;3.10;;;14.70;42.70;;;;;;2347450;54;20977;-64
2022/03/30 03:57:35;;;;;;;6.97;2.80;;;14.70;42.80;;;;;;2434481;52;20977;-63
2022/03/30 04:00:02;;;;;;;8.82;3.03;;;14.60;42.80;;;;;;2347779;53;21516;-64
2022/03/30 04:02:28;;;;;;;10.55;3.08;;;14.60;43.10;;;;;;2439237;52;20928;-64
2022/03/30 04:04:54;;;;;;;10.55;3.87;;;14.60;43.30;;;;;;2344948;53;21122;-64
2022/03/30 04:07:21;;;;;;;9.45;3.33;;;14.60;43.40;;;;;;2342940;53;21061;-64
2022/03/30 04:09:47;;;;;;;12.37;3.55;;;14.50;43.50;;;;;;2538690;52;21291;-64
2022/03/30 04:12:14;;;;;;;9.32;3.08;;;14.50;43.60;;;;;;2344742;53;20921;-64
2022/03/30 04:14:41;;;;;;;7.30;2.90;;;14.50;43.80;;;;;;2346162;53;20937;-64
2022/03/30 04:17:07;;;;;;;8.43;3.45;;;14.50;43.90;;;;;;2344960;53;20949;-63
2022/03/30 04:19:34;;;;;;;7.35;2.75;;;14.40;44.00;;;;;;2344417;53;20936;-63
2022/03/30 04:22:01;;;;;;;6.12;2.60;;;14.40;44.10;;;;;;2346763;54;20994;-63
2022/03/30 04:24:37;;;;;;;9.52;3.42;;;14.40;44.20;;;;;;2345137;53;20917;-64
2022/03/30 04:27:04;;;;;;;8.40;2.90;;;14.40;45.00;;;;;;2589806;52;20944;-64
2022/03/30 04:29:33;;;;;;;7.60;3.30;;;14.30;44.30;;;;;;2345270;53;20977;-63
2022/03/30 04:32:02;;;;;;;10.77;3.45;;;14.30;44.50;;;;;;2345795;53;20941;-64
2022/03/30 04:34:28;;;;;;;9.27;3.10;;;14.30;44.60;;;;;;2324666;54;21785;-63
2022/03/30 04:36:56;;;;;;;10.63;3.15;;;14.20;44.60;;;;;;2345057;53;20937;-64
2022/03/30 04:39:23;;;;;;;8.07;3.62;;;14.20;44.60;;;;;;2345286;53;20952;-64
2022/03/30 04:41:53;;;;;;;8.90;3.20;;;14.20;44.80;;;;;;2346188;53;20932;-63
2022/03/30 04:44:20;;;;;;;11.43;3.85;;;14.20;44.80;;;;;;2348161;53;20961;-63
2022/03/30 04:46:46;;;;;;;10.18;3.45;;;14.20;44.90;;;;;;2346136;53;20953;-65
2022/03/30 04:49:13;;;;;;;11.05;3.85;;;14.20;44.90;;;;;;2346057;53;21000;-64
2022/03/30 04:51:39;;;;;;;10.23;3.45;;;14.10;45.10;;;;;;2344926;53;20936;-64
2022/03/30 04:54:07;;;;;;;10.85;3.78;;;14.10;45.20;;;;;;2349819;53;20985;-63
2022/03/30 04:56:34;;;;;;;9.50;3.37;;;14.10;45.30;;;;;;2346388;53;20993;-64
2022/03/30 04:59:00;;;;;;;12.43;3.60;;;14.10;45.40;;;;;;2618120;52;21296;-63
2022/03/30 05:01:29;;;;;;;13.13;3.55;;;14.10;45.50;;;;;;2343768;53;21104;-63
2022/03/30 05:03:55;;;;;;;10.75;3.42;;;14.00;45.40;;;;;;2346805;53;21478;-64
2022/03/30 05:06:21;;;;;;;10.90;3.62;;;14.00;45.60;;;;;;2344431;53;21569;-64
2022/03/30 05:08:48;;;;;;;9.45;3.25;;;14.00;45.70;;;;;;2345218;53;20955;-65
2022/03/30 05:11:14;;;;;;;11.85;3.75;;;14.00;45.80;;;;;;2343181;53;20940;-63
2022/03/30 05:13:40;;;;;;;8.27;3.28;;;14.00;46.60;;;;;;2344170;53;21497;-63
2022/03/30 05:16:08;;;;;;;9.20;3.30;;;14.00;46.00;;;;;;2348161;54;20948;-64
2022/03/30 05:18:34;;;;;;;12.20;3.50;;;14.00;46.20;;;;;;2344078;53;20984;-64
2022/03/30 05:21:00;;;;;;;11.00;3.85;;;14.00;46.00;;;;;;2348274;53;20983;-62
2022/03/30 05:23:26;;;;;;;7.87;3.50;;;14.00;46.20;;;;;;2347772;53;21320;-63
2022/03/30 05:25:53;;;;;;;8.93;3.45;;;14.00;46.80;;;;;;2344064;53;20921;-63
2022/03/30 05:28:19;;;;;;;8.20;3.45;;;14.00;46.20;;;;;;2343944;53;20933;-64
2022/03/30 05:30:47;;;;;;;7.43;3.55;;;13.90;46.10;;;;;;2346108;53;20938;-64
2022/03/30 05:33:13;;;;;;;10.50;3.65;;;14.00;46.20;;;;;;2358237;53;20921;-63
2022/03/30 05:35:40;;;;;;;7.53;3.58;;;13.90;46.20;;;;;;2591140;52;20957;-63
2022/03/30 05:38:12;;;;;;;10.10;3.20;;;13.90;46.20;;;;;;2345355;53;20929;-63
2022/03/30 05:40:38;;;;;;;9.77;3.30;;;13.90;46.70;;;;;;2345280;53;21840;-64
2022/03/30 05:43:05;;;;;;;9.30;3.58;;;13.90;46.30;;;;;;2351737;53;21506;-63
2022/03/30 05:45:31;;;;;;;8.30;3.40;;;13.90;46.50;;;;;;2566091;52;21008;-63
2022/03/30 05:48:00;;;;;;;11.55;3.15;;;13.90;46.50;;;;;;2484395;52;20961;-64
2022/03/30 05:50:26;;;;;;;8.02;3.28;;;13.90;46.60;;;;;;2591249;52;21013;-63
2022/03/30 05:52:52;;;;;;;9.10;3.75;;;13.90;46.70;;;;;;2343232;53;21525;-64
2022/03/30 05:55:19;;;;;;;10.40;3.50;;;13.90;46.80;;;;;;2345776;53;20984;-63
2022/03/30 05:57:45;;;;;;;13.10;4.70;;;13.90;46.80;;;;;;2344865;53;21359;-62
2022/03/30 06:00:12;;;;;;;14.70;4.05;;;13.90;47.10;;;;;;2348566;53;20945;-64
2022/03/30 06:02:38;;;;;;;10.75;3.53;;;13.90;47.10;;;;;;2590848;52;20929;-63
2022/03/30 06:05:09;;;;;;;13.95;3.45;;;13.90;47.00;;;;;;2344944;53;20977;-63
2022/03/30 06:07:38;;;;;;;9.88;3.28;;;13.90;47.10;;;;;;2348774;53;20901;-62
2022/03/30 06:10:04;;;;;;;10.68;3.33;;;13.90;47.10;;;;;;2393968;52;21455;-62
2022/03/30 06:12:32;;;;;;;12.70;3.33;;;13.90;47.20;;;;;;2342680;53;21008;-63
2022/03/30 06:14:58;;;;;;;10.55;4.12;;;13.90;47.20;;;;;;2344934;53;21282;-63
2022/03/30 06:17:24;;;;;;;13.38;4.18;;;14.00;47.40;;;;;;2348697;53;21636;-63
2022/03/30 06:19:54;;;;;;;11.05;3.53;;;14.00;47.40;;;;;;2344360;53;20998;-63
2022/03/30 06:22:29;;;;;;;10.07;3.87;;;14.00;47.40;;;;;;2345307;53;21356;-63
2022/03/30 06:24:56;;;;;;;9.15;3.87;;;14.00;47.80;;;;;;2348889;53;20940;-64
2022/03/30 06:27:23;;;;;;;8.00;3.28;;;14.00;47.60;;;;;;2485403;52;20985;-64
2022/03/30 06:29:52;;;;;;;14.07;3.78;;;14.00;47.60;;;;;;2344052;53;21474;-64
2022/03/30 06:32:19;;;;;;;13.15;3.20;;;14.00;47.60;;;;;;2344550;53;21020;-63
2022/03/30 06:34:46;;;;;;;13.62;3.53;;;14.00;47.70;;;;;;2344297;53;20988;-63
2022/03/30 06:37:12;;;;;;;9.35;3.30;;;14.00;47.70;;;;;;2348448;53;21012;-63
2022/03/30 06:39:39;;;;;;;13.35;4.07;;;14.00;47.70;;;;;;2335190;53;21141;-64
2022/03/30 06:42:07;;;;;;;12.20;3.72;;;14.10;47.90;;;;;;2344470;53;20987;-63
2022/03/30 06:44:33;;;;;;;9.43;3.80;;;14.10;48.00;;;;;;2343146;53;21828;-63
2022/03/30 06:47:01;;;;;;;9.50;3.70;;;14.10;48.10;;;;;;2407095;53;20929;-63
2022/03/30 06:49:28;;;;;;;8.75;3.30;;;14.10;48.10;;;;;;2343980;53;21015;-64
2022/03/30 06:51:54;;;;;;;8.63;3.40;;;14.10;48.20;;;;;;2344131;53;20956;-63
2022/03/30 06:54:20;;;;;;;8.00;3.15;;;14.10;48.20;;;;;;2344971;53;21095;-63
2022/03/30 06:56:46;;;;;;;9.68;3.45;;;14.10;48.20;;;;;;2347900;53;20952;-63
2022/03/30 06:59:15;;;;;;;8.73;3.17;;;14.20;48.30;;;;;;2348630;53;21040;-62
2022/03/30 07:01:41;;;;;;;6.35;2.78;;;14.20;48.40;;;;;;2344619;53;20956;-62
2022/03/30 07:04:07;;;;;;;11.75;4.55;;;14.20;48.30;;;;;;2343474;53;20930;-64
2022/03/30 07:06:34;;;;;;;12.02;3.00;;;14.20;48.30;;;;;;2539034;52;20976;-63
2022/03/30 07:11:45;;;;;;;9.77;3.42;;;14.30;48.40;;;;;;2487193;52;21474;-63
2022/03/30 07:14:11;;;;;;;7.37;2.65;;;14.30;48.30;;;;;;2344245;53;20984;-63
2022/03/30 07:16:38;;;;;;;9.30;3.12;;;14.30;48.30;;;;;;2344198;53;20997;-63
2022/03/30 07:19:04;;;;;;;8.60;3.90;;;14.40;48.50;;;;;;2345018;53;21358;-63
2022/03/30 07:21:30;;;;;;;9.32;3.87;;;14.30;48.40;;;;;;2345108;53;21012;-63
2022/03/30 07:23:57;;;;;;;11.60;4.62;;;14.40;48.50;;;;;;2344588;53;21339;-63
2022/03/30 07:26:23;;;;;;;13.95;4.05;;;14.40;48.50;;;;;;2344931;53;21059;-64
2022/03/30 07:28:50;;;;;;;9.60;4.50;;;14.40;48.60;;;;;;2344597;53;21332;-63
2022/03/30 07:31:17;;;;;;;12.27;4.80;;;14.40;48.60;;;;;;2591626;52;21470;-64
2022/03/30 07:33:43;;;;;;;12.65;3.60;;;14.40;48.60;;;;;;2349408;53;20960;-63
2022/03/30 07:36:09;;;;;;;12.00;4.53;;;14.40;48.60;;;;;;2344144;53;21737;-63
2022/03/30 07:38:36;;;;;;;9.10;4.37;;;14.40;48.80;;;;;;2344920;53;20945;-63
2022/03/30 07:41:02;;;;;;;7.75;3.50;;;14.40;49.00;;;;;;2345399;53;20924;-64
2022/03/30 07:43:28;;;;;;;9.68;3.90;;;14.40;48.90;;;;;;2348422;53;20981;-63
2022/03/30 07:45:55;;;;;;;8.02;3.92;;;14.40;48.90;;;;;;2502994;53;20960;-63
2022/03/30 07:48:21;;;;;;;12.73;5.40;;;14.40;49.10;;;;;;2344955;53;21797;-62
2022/03/30 07:50:48;;;;;;;10.65;4.35;;;14.40;49.10;;;;;;2350731;53;20940;-62
2022/03/30 07:53:14;;;;;;;12.43;4.47;;;14.40;49.10;;;;;;2344533;53;21063;-63
2022/03/30 07:55:40;;;;;;;12.20;4.50;;;14.40;49.10;;;;;;2591235;52;21378;-62
2022/03/30 07:58:07;;;;;;;11.00;5.60;;;14.40;49.10;;;;;;2344889;53;20952;-63
2022/03/30 08:00:34;;;;;;;16.08;5.72;;;14.50;49.20;;;;;;2439444;52;20996;-62
2022/03/30 08:03:01;;;;;;;14.93;4.97;;;14.50;49.40;;;;;;2592139;52;20984;-64
2022/03/30 08:05:27;;;;;;;12.45;4.87;;;14.50;49.50;;;;;;2344709;53;20972;-64
2022/03/30 08:07:54;;;;;;;17.87;7.35;;;14.50;49.60;;;;;;2564535;52;21363;-62
2022/03/30 08:10:20;;;;;;;10.35;5.18;;;14.50;49.60;;;;;;2344727;53;21039;-62
2022/03/30 08:12:47;;;;;;;14.48;5.20;;;14.60;49.70;;;;;;2344430;53;20945;-64
2022/03/30 08:15:13;;;;;;;13.77;5.43;;;14.60;49.70;;;;;;2509910;52;20964;-63
2022/03/30 08:17:41;;;;;;;11.07;4.22;;;14.60;49.80;;;;;;2348674;53;21447;-63
2022/03/30 08:20:08;;;;;;;14.13;5.85;;;14.70;50.00;;;;;;2342541;54;20937;-64
2022/03/30 08:22:35;;;;;;;14.93;5.30;;;14.60;50.00;;;;;;2344827;53;21508;-64
2022/03/30 08:25:07;;;;;;;15.00;5.47;;;14.70;50.10;;;;;;2344990;53;20913;-65
2022/03/30 08:27:34;;;;;;;13.38;5.07;;;14.70;50.30;;;;;;2344027;53;20952;-65
2022/03/30 08:30:03;;;;;;;13.95;5.30;;;14.80;50.40;;;;;;2344385;53;21505;-63
2022/03/30 08:32:32;;;;;;;10.10;4.65;;;14.80;50.40;;;;;;2344260;53;20977;-63
2022/03/30 08:34:59;;;;;;;14.20;4.93;;;14.80;50.60;;;;;;2348067;54;21591;-65
2022/03/30 08:37:25;;;;;;;11.05;5.10;;;14.80;50.50;;;;;;2344805;53;20960;-64
2022/03/30 08:39:55;;;;;;;12.88;4.37;;;14.80;50.60;;;;;;2345051;53;20933;-65
2022/03/30 08:42:22;;;;;;;12.32;4.82;;;14.80;50.80;;;;;;2344574;53;20949;-65
2022/03/30 08:44:51;;;;;;;11.48;4.60;;;14.90;50.80;;;;;;2591020;52;20973;-65
2022/03/30 08:47:19;;;;;;;11.32;5.25;;;14.90;50.80;;;;;;2343990;53;20968;-66
2022/03/30 08:49:50;;;;;;;11.27;4.75;;;14.90;51.00;;;;;;2344603;53;20921;-66
2022/03/30 08:52:16;;;;;;;14.63;5.65;;;14.90;51.00;;;;;;2345753;53;20932;-65
2022/03/30 08:54:52;;;;;;;10.23;4.43;;;15.00;51.20;;;;;;2377573;53;20921;-63
2022/03/30 08:57:19;;;;;;;14.52;4.80;;;15.00;51.10;;;;;;2591794;52;21024;-67
2022/03/30 09:00:47;;;;;;;10.60;4.28;;;15.00;51.10;;;;;;2349075;53;20937;-66
2022/03/30 09:03:14;;;;;;;8.70;3.28;;;15.10;51.90;;;;;;2325890;54;20945;-64
2022/03/30 09:05:44;;;;;;;14.90;3.90;;;15.10;51.10;;;;;;2347304;53;20988;-65
2022/03/30 09:08:15;;;;;;;11.25;3.40;;;15.20;51.30;;;;;;2344887;53;20925;-64
2022/03/30 09:10:43;;;;;;;10.10;3.80;;;15.20;51.40;;;;;;2351321;53;21738;-64
2022/03/30 09:13:09;;;;;;;10.18;3.35;;;15.30;51.40;;;;;;2348159;53;20972;-64
2022/03/30 09:15:38;;;;;;;10.52;4.00;;;15.30;51.20;;;;;;2592006;52;21496;-64
2022/03/30 09:18:06;;;;;;;9.13;3.92;;;15.40;51.30;;;;;;2344903;53;20937;-66
2022/03/30 09:20:41;;;;;;;8.57;3.62;;;15.40;51.20;;;;;;2345303;53;20944;-65
2022/03/30 09:23:11;;;;;;;6.40;3.42;;;15.50;51.40;;;;;;2345013;53;20988;-65
2022/03/30 09:25:48;;;;;;;12.48;4.25;;;15.50;51.80;;;;;;2344516;53;20966;-64
2022/03/30 09:28:19;;;;;;;10.48;3.92;;;15.60;51.30;;;;;;2346758;53;21542;-64
2022/03/30 09:30:46;;;;;;;9.75;4.45;;;15.60;51.00;;;;;;2364521;53;21340;-63
2022/03/30 09:33:13;;;;;;;10.45;4.78;;;15.70;51.10;;;;;;2344790;53;20909;-63
2022/03/30 09:35:42;;;;;;;12.75;6.00;;;15.70;51.20;;;;;;2347689;53;20992;-65
2022/03/30 09:38:13;;;;;;;11.18;5.75;;;15.70;51.10;;;;;;2348329;53;20948;-65
2022/03/30 09:40:47;;;;;;;10.82;4.55;;;15.80;51.30;;;;;;2353727;53;21016;-65
2022/03/30 09:45:07;;;;;;;13.35;4.62;;;15.80;51.50;;;;;;2345273;53;20941;-66
2022/03/30 09:47:38;;;;;;;9.20;4.25;;;15.80;51.30;;;;;;2348720;53;20977;-65
2022/03/30 09:50:07;;;;;;;10.13;4.05;;;15.90;51.00;;;;;;2344792;53;20954;-65
2022/03/30 09:52:37;;;;;;;9.05;4.55;;;15.90;50.90;;;;;;2347176;53;20972;-64
2022/03/30 09:55:04;;;;;;;13.80;4.78;;;15.90;50.80;;;;;;2347194;53;20958;-65
2022/03/30 09:57:43;;;;;;;14.87;4.80;;;15.90;50.80;;;;;;2349057;53;20937;-64
2022/03/30 10:00:18;;;;;;;13.32;4.80;;;16.00;51.40;;;;;;2343527;53;21012;-65
2022/03/30 10:02:46;;;;;;;9.80;4.60;;;16.00;51.30;;;;;;2346203;53;21004;-64
2022/03/30 10:05:14;;;;;;;13.98;4.45;;;16.00;51.00;;;;;;2381160;52;21431;-64
2022/03/30 10:07:40;;;;;;;8.75;4.20;;;16.00;51.10;;;;;;2347666;53;21369;-64
2022/03/30 10:10:11;;;;;;;7.93;3.90;;;16.00;51.10;;;;;;2345026;53;20960;-65
2022/03/30 10:12:37;;;;;;;8.65;4.10;;;16.00;51.10;;;;;;2344446;53;20960;-65
2022/03/30 10:15:04;;;;;;;12.75;4.87;;;16.10;51.10;;;;;;2344907;53;20973;-65
2022/03/30 10:17:31;;;;;;;11.75;4.82;;;16.10;51.20;;;;;;2343429;53;20984;-66
2022/03/30 10:20:01;;;;;;;12.93;5.20;;;16.20;51.30;;;;;;2345050;53;21620;-66
2022/03/30 10:24:19;;;;;;;12.77;4.70;;;16.20;51.20;;;;;;2591298;52;20948;-66
2022/03/30 10:28:52;;;;;;;9.43;4.10;;;16.20;51.60;;;;;;2344961;53;20936;-66
2022/03/30 10:31:20;;;;;;;11.63;3.83;;;16.30;51.50;;;;;;2344392;53;20941;-65
2022/03/30 10:33:47;;;;;;;11.68;4.57;;;16.40;51.10;;;;;;2345113;53;20992;-66
2022/03/30 10:36:29;;;;;;;10.75;4.53;;;16.40;51.20;;;;;;2344180;53;20981;-65
2022/03/30 10:39:27;;;;;;;10.20;3.90;;;16.50;51.80;;;;;;2345487;53;20988;-64
2022/03/30 10:42:14;;;;;;;8.68;3.87;;;16.50;52.10;;;;;;2437099;52;20979;-65
2022/03/30 10:44:46;;;;;;;8.35;4.12;;;16.70;52.30;;;;;;2358041;53;20996;-67
2022/03/30 10:47:30;;;;;;;7.43;3.87;;;16.80;52.50;;;;;;2568782;52;20917;-66
2022/03/30 10:49:59;;;;;;;9.10;4.35;;;17.00;52.40;;;;;;2343290;53;20980;-65
2022/03/30 10:52:39;;;;;;;10.52;4.43;;;17.20;52.20;;;;;;2590638;52;21548;-66
2022/03/30 10:55:39;;;;;;;11.10;4.05;;;17.40;52.20;;;;;;2325297;54;20965;-66
2022/03/30 10:58:13;;;;;;;6.72;3.83;;;17.60;52.00;;;;;;2591686;52;20968;-66
2022/03/30 11:00:41;;;;;;;9.90;4.93;;;17.70;51.40;;;;;;2345249;53;20964;-64
2022/03/30 11:03:26;;;;;;;11.12;5.05;;;17.80;51.10;;;;;;2496556;52;21500;-67
2022/03/30 11:06:11;;;;;;;11.82;4.32;;;17.80;50.90;;;;;;2344319;53;20945;-66
2022/03/30 11:08:59;;;;;;;8.73;4.15;;;17.90;50.60;;;;;;2347752;53;20988;-65
2022/03/30 11:11:42;;;;;;;9.30;4.50;;;18.00;50.70;;;;;;2344435;53;20993;-65
2022/03/30 11:16:06;;;;;;;11.00;4.72;;;18.00;50.50;;;;;;2344957;53;20937;-65
2022/03/30 11:18:32;;;;;;;8.73;3.83;;;18.10;50.20;;;;;;2344806;53;21009;-66
2022/03/30 11:21:15;;;;;;;8.52;4.32;;;18.20;49.90;;;;;;2344992;53;20916;-64
2022/03/30 11:24:09;;;;;;;12.70;4.82;;;18.20;50.10;;;;;;2358768;53;20978;-65
2022/03/30 11:30:11;;;;;;;8.80;3.95;;;18.30;50.40;;;;;;2327865;55;20969;-65
2022/03/30 11:33:02;;;;;;;10.45;3.85;;;18.60;50.40;;;;;;2345794;53;20925;-65
2022/03/30 11:35:32;;;;;;;5.90;3.37;;;18.80;50.50;;;;;;2349042;53;21176;-65
2022/03/30 11:38:09;;;;;;;7.37;3.97;;;19.00;50.40;;;;;;2342864;53;20956;-66
2022/03/30 11:40:37;;;;;;;11.48;4.45;;;19.20;50.00;;;;;;2325039;54;21421;-65
2022/03/30 11:43:04;;;;;;;8.27;3.50;;;19.30;49.60;;;;;;2346911;54;21449;-65
2022/03/30 11:45:44;;;;;;;7.15;3.65;;;19.40;49.50;;;;;;2344276;53;21747;-66
2022/03/30 11:48:11;;;;;;;7.68;3.58;;;19.50;49.40;;;;;;2344701;53;21466;-65
2022/03/30 11:50:42;;;;;;;7.70;3.55;;;19.60;49.10;;;;;;2344797;53;20953;-66
2022/03/30 11:53:12;;;;;;;6.45;3.55;;;19.70;48.80;;;;;;2388552;53;21040;-65
2022/03/30 11:55:50;;;;;;;7.30;3.80;;;19.70;48.50;;;;;;2324846;54;21485;-66
2022/03/30 11:59:19;;;;;;;9.35;4.05;;;19.80;48.10;;;;;;2344235;53;20993;-64
2022/03/30 12:01:46;;;;;;;7.18;3.25;;;19.80;47.80;;;;;;2591245;52;20905;-65
2022/03/30 12:04:12;;;;;;;8.25;4.18;;;19.80;47.60;;;;;;2344369;53;20980;-65
2022/03/30 12:06:48;;;;;;;8.05;3.45;;;19.70;47.40;;;;;;2344794;53;20925;-65
2022/03/30 12:09:17;;;;;;;8.20;3.70;;;19.70;47.40;;;;;;2591088;52;20929;-65
2022/03/30 12:11:44;;;;;;;7.97;3.53;;;19.70;47.50;;;;;;2382891;53;21452;-66
2022/03/30 12:14:11;;;;;;;8.05;3.92;;;19.60;47.40;;;;;;2344283;53;20916;-65
2022/03/30 12:16:38;;;;;;;7.20;3.58;;;19.60;47.30;;;;;;2591005;52;21383;-64
2022/03/30 12:19:08;;;;;;;7.87;3.40;;;19.60;47.20;;;;;;2343892;53;21409;-65
2022/03/30 12:21:34;;;;;;;5.82;3.10;;;19.60;47.10;;;;;;2347655;53;20932;-66
2022/03/30 12:24:06;;;;;;;8.48;3.03;;;19.50;47.00;;;;;;2343931;53;21430;-65
2022/03/30 12:26:50;;;;;;;7.10;3.80;;;19.50;47.00;;;;;;2346412;53;21401;-65
2022/03/30 12:29:16;;;;;;;8.45;4.12;;;19.50;46.80;;;;;;2344232;53;21025;-65
2022/03/30 12:31:53;;;;;;;9.18;4.18;;;19.40;46.40;;;;;;2343555;53;20959;-66
2022/03/30 12:34:20;;;;;;;8.93;4.55;;;19.30;46.20;;;;;;2510233;52;21480;-65
2022/03/30 12:36:49;;;;;;;9.18;4.60;;;19.20;46.00;;;;;;2344615;53;20930;-65
2022/03/30 12:39:25;;;;;;;10.40;5.62;;;19.10;46.00;;;;;;2347642;53;20920;-65
2022/03/30 12:42:11;;;;;;;7.97;4.70;;;18.90;45.90;;;;;;2344597;53;21373;-65
2022/03/30 12:44:48;;;;;;;8.40;4.53;;;18.80;45.90;;;;;;2348745;53;20988;-65
2022/03/30 12:47:30;;;;;;;7.05;4.45;;;18.60;45.90;;;;;;2325609;54;20925;-65
2022/03/30 12:50:05;;;;;;;7.70;4.60;;;18.50;46.00;;;;;;2352457;53;20960;-65
2022/03/30 12:52:36;;;;;;;9.85;5.57;;;18.30;45.90;;;;;;2343655;53;20944;-65
2022/03/30 12:55:27;;;;;;;7.93;4.97;;;18.10;45.90;;;;;;2344950;53;20933;-65
2022/03/30 12:58:01;;;;;;;9.80;5.07;;;18.00;46.40;;;;;;2345111;53;21051;-66
2022/03/30 13:00:36;;;;;;;8.02;4.70;;;17.80;46.10;;;;;;2591410;52;20913;-65
2022/03/30 13:03:13;;;;;;;7.93;4.93;;;17.70;46.60;;;;;;2342647;53;20976;-64
2022/03/30 13:05:41;;;;;;;8.32;4.37;;;17.50;46.90;;;;;;2457386;52;20980;-65
2022/03/30 13:08:12;;;;;;;7.78;4.87;;;17.40;46.90;;;;;;2591950;52;20925;-66
2022/03/30 13:10:52;;;;;;;9.15;5.00;;;17.30;47.20;;;;;;2590483;52;21004;-64